createdAt,value
2023-03-22T00:04:35.381Z,7.26
2023-03-22T00:24:35.561Z,7.1
2023-03-22T00:44:34.776Z,6.73
2023-03-22T01:04:34.673Z,6.24
2023-03-22T01:24:34.825Z,5.98
2023-03-22T01:44:34.909Z,5.75
2023-03-22T02:04:34.948Z,6
2023-03-22T02:24:34.972Z,6.04
2023-03-22T02:44:34.963Z,6.16
2023-03-22T03:04:35.066Z,6.2
2023-03-22T03:24:35.019Z,6.36
2023-03-22T03:44:35.125Z,6.49
2023-03-22T04:04:35.196Z,6.61
2023-03-22T04:24:35.201Z,6.61
2023-03-22T04:44:35.215Z,6.61
2023-03-22T05:04:35.369Z,6.63
2023-03-22T05:24:35.348Z,6.45
2023-03-22T05:44:35.405Z,6.3
2023-03-22T06:04:35.437Z,6.29
2023-03-22T06:24:35.465Z,6.7
2023-03-22T06:44:35.644Z,7.14
2023-03-22T07:04:35.550Z,8.22
2023-03-22T07:24:38.681Z,9.09
2023-03-22T07:44:35.628Z,9.36
2023-03-22T08:04:35.671Z,9.69
2023-03-22T08:24:35.716Z,10.2
2023-03-22T08:44:35.704Z,11.47
2023-03-22T09:24:35.734Z,12.97
2023-03-22T09:44:35.971Z,13.62
2023-03-22T10:04:35.904Z,14.41
2023-03-22T10:24:35.889Z,15.76
2023-03-22T10:44:35.821Z,15.93
2023-03-22T11:04:35.832Z,17.5
2023-03-22T11:24:35.983Z,17.94
2023-03-22T11:44:36.017Z,16.69
2023-03-22T12:04:36.090Z,17.47
2023-03-22T12:44:36.084Z,17.43
2023-03-22T13:04:36.170Z,18.83
2023-03-22T13:24:37.227Z,18.45
2023-03-22T13:44:36.170Z,18.31
2023-03-22T14:04:36.270Z,18.83
2023-03-22T15:04:36.294Z,16.7
2023-03-22T15:24:36.288Z,16.4
2023-03-22T15:44:36.333Z,16.07
2023-03-22T16:04:36.400Z,15.72
2023-03-22T16:24:36.423Z,15.41
2023-03-22T17:04:36.497Z,14.67
2023-03-22T17:24:36.477Z,14.28
2023-03-22T17:44:36.523Z,13.92
2023-03-22T18:04:36.550Z,13.44
2023-03-22T18:24:36.530Z,13.16
2023-03-22T18:44:36.648Z,13.09
2023-03-22T19:04:36.696Z,12.88
2023-03-22T19:24:36.628Z,13.01
2023-03-22T19:44:36.635Z,12.87
2023-03-22T20:04:36.734Z,13.03
2023-03-22T20:24:36.760Z,13.43
2023-03-22T20:44:36.843Z,14.11
2023-03-22T21:04:36.904Z,14.28
2023-03-22T21:24:36.840Z,13.8
2023-03-22T21:44:36.899Z,13.31
2023-03-22T22:04:36.961Z,12.82
2023-03-22T22:24:36.965Z,12.64
2023-03-22T22:44:37.559Z,12.68
2023-03-22T23:04:37.192Z,12.63
2023-03-22T23:24:37.063Z,12.68
2023-03-22T23:44:37.107Z,12.78
